Terminal Aerodrome Forecast
Issued by NWS

Home | Current Version | Previous Version | Text Only | Print | Product List | Glossary On
Versions: 1 2 3 4 5 6 7 8 9 10 11 12 13 14 15 16
000
FTUS43 KJKL 270500
TAFSME
TAF
KSME 270526Z 2706/2806 29004KT P6SM SHRA VCTS SCT040CB BKN100
     FM271500 24010G20KT P6SM VCTS SCT040CB BKN100
      TEMPO 2718/2722 VRB20G40KT 4SM +TSRAPL BR BKN025CB
     FM272200 27005KT P6SM VCTS SCT040CB BKN100=

USA.gov is the U.S. government's official web portal to all federal, state and local government web resources and services.